Time;durP1;ratioP1;P1;durP2;ratioP2;P2;SDS_P1;SDS_P2;PMS_P1;PMS_P2;Temp;Humidity;BMP_temperature;BMP_pressure;BME280_temperature;BME280_humidity;BME280_pressure;Samples;Min_cycle;Max_cycle;Signal;HPM_P1;HPM_P2
2023/04/23 00:01:11;;;;;;;38.85;22.85;;;11.40;99.90;;;;;;5096976;28;20040;-72
2023/04/23 00:03:40;;;;;;;49.63;25.45;;;11.30;99.90;;;;;;5097997;28;20097;-72
2023/04/23 00:06:06;;;;;;;38.20;24.05;;;11.50;99.90;;;;;;5097916;28;20058;-72
2023/04/23 00:08:33;;;;;;;52.25;26.27;;;11.40;99.90;;;;;;5097451;28;20115;-72
2023/04/23 00:10:58;;;;;;;48.80;25.75;;;11.60;99.90;;;;;;5097863;28;20076;-72
2023/04/23 00:13:25;;;;;;;42.45;24.85;;;11.60;99.90;;;;;;5097761;28;20170;-72
2023/04/23 00:15:50;;;;;;;70.38;29.00;;;11.60;99.90;;;;;;5097814;28;20406;-72
2023/04/23 00:18:16;;;;;;;38.33;23.70;;;11.60;99.90;;;;;;5097740;28;20075;-72
2023/04/23 00:20:42;;;;;;;70.45;28.00;;;11.60;99.90;;;;;;5096003;28;20060;-71
2023/04/23 00:23:08;;;;;;;90.75;31.25;;;11.60;99.90;;;;;;5097644;28;20048;-72
2023/04/23 00:25:34;;;;;;;58.60;27.98;;;11.60;99.90;;;;;;5097585;28;20040;-72
2023/04/23 00:28:00;;;;;;;47.67;26.55;;;11.60;99.90;;;;;;5097502;28;20088;-72
2023/04/23 00:30:25;;;;;;;37.92;23.55;;;11.60;99.90;;;;;;5097464;28;20118;-73
2023/04/23 00:32:51;;;;;;;58.40;27.85;;;11.60;99.90;;;;;;5097452;28;20108;-72
2023/04/23 00:35:17;;;;;;;52.40;27.73;;;11.70;99.90;;;;;;5097097;28;20047;-72
2023/04/23 00:37:43;;;;;;;54.00;27.45;;;11.80;99.90;;;;;;5097409;28;20096;-72
2023/04/23 00:40:10;;;;;;;46.92;25.02;;;11.80;99.90;;;;;;5096975;28;20044;-72
2023/04/23 00:42:37;;;;;;;43.58;25.15;;;11.90;99.90;;;;;;5097004;28;20043;-72
2023/04/23 00:45:05;;;;;;;46.80;24.83;;;11.90;99.90;;;;;;5097266;28;20071;-72
2023/04/23 00:47:32;;;;;;;45.80;26.48;;;11.80;99.90;;;;;;5097216;28;20042;-72
2023/04/23 00:49:59;;;;;;;41.17;24.70;;;11.80;99.90;;;;;;5097246;28;20036;-72
2023/04/23 00:52:25;;;;;;;46.00;25.92;;;11.60;99.90;;;;;;5097194;28;20383;-72
2023/04/23 00:54:50;;;;;;;43.00;23.45;;;11.50;99.90;;;;;;5097165;28;20036;-72
2023/04/23 00:57:17;;;;;;;44.17;25.48;;;11.60;99.90;;;;;;5097100;28;20041;-72
2023/04/23 00:59:43;;;;;;;37.83;22.65;;;11.60;99.90;;;;;;5096882;28;20070;-74
2023/04/23 01:02:09;;;;;;;48.38;25.13;;;11.50;99.90;;;;;;5097011;28;20063;-72
2023/04/23 01:04:36;;;;;;;39.75;23.50;;;11.50;99.90;;;;;;5095695;28;20097;-72
2023/04/23 01:07:02;;;;;;;36.60;21.98;;;11.60;99.90;;;;;;5096671;28;20040;-72
2023/04/23 01:09:28;;;;;;;42.03;24.27;;;11.50;99.90;;;;;;5096260;28;20418;-72
2023/04/23 01:11:56;;;;;;;42.88;23.95;;;11.40;99.90;;;;;;5096899;28;20077;-72
2023/04/23 01:14:22;;;;;;;44.88;23.48;;;11.40;99.90;;;;;;5096879;28;20047;-72
2023/04/23 01:16:48;;;;;;;40.08;23.42;;;11.30;99.90;;;;;;5097159;28;20044;-72
2023/04/23 01:19:14;;;;;;;43.50;23.13;;;11.00;99.90;;;;;;5103202;28;20036;-72
2023/04/23 01:21:41;;;;;;;42.17;23.60;;;11.10;99.90;;;;;;5103206;28;20048;-72
2023/04/23 01:24:08;;;;;;;41.72;23.02;;;10.90;99.90;;;;;;5103302;28;20502;-72
2023/04/23 01:26:34;;;;;;;39.72;23.50;;;10.70;99.90;;;;;;5103577;28;20043;-72
2023/04/23 01:29:00;;;;;;;43.65;25.05;;;10.70;99.90;;;;;;5102566;28;20036;-72
2023/04/23 01:31:27;;;;;;;46.25;25.35;;;10.80;99.90;;;;;;5103493;28;20076;-72
2023/04/23 01:33:54;;;;;;;43.53;24.17;;;10.80;99.90;;;;;;5103525;28;20067;-72
2023/04/23 01:36:22;;;;;;;42.97;24.95;;;10.80;99.90;;;;;;5103469;28;20052;-72
2023/04/23 01:38:48;;;;;;;44.72;25.17;;;10.90;99.90;;;;;;5103054;28;20077;-72
2023/04/23 01:41:14;;;;;;;41.67;23.55;;;11.00;99.90;;;;;;5103059;28;20055;-72
2023/04/23 01:43:42;;;;;;;41.17;23.00;;;11.00;99.90;;;;;;5103376;28;20040;-72
2023/04/23 01:46:08;;;;;;;42.13;23.35;;;11.10;99.90;;;;;;5103061;28;20032;-72
2023/04/23 01:48:34;;;;;;;42.83;24.27;;;11.10;99.90;;;;;;5103361;28;20036;-72
2023/04/23 01:51:00;;;;;;;45.33;25.48;;;11.00;99.90;;;;;;5103267;28;20044;-72
2023/04/23 01:53:26;;;;;;;41.92;23.50;;;11.00;99.90;;;;;;5103285;28;20036;-72
2023/04/23 01:55:54;;;;;;;45.10;25.67;;;10.90;99.90;;;;;;5103315;28;20084;-72
2023/04/23 01:58:20;;;;;;;41.53;23.42;;;10.70;99.90;;;;;;5103284;28;20381;-72
2023/04/23 02:00:46;;;;;;;42.38;23.92;;;10.70;99.90;;;;;;5103180;28;20047;-72
2023/04/23 02:03:11;;;;;;;45.38;24.52;;;10.80;99.90;;;;;;5102941;28;20047;-72
2023/04/23 02:05:40;;;;;;;41.55;22.95;;;10.80;99.90;;;;;;5103232;28;20116;-72
2023/04/23 02:08:06;;;;;;;44.97;25.60;;;10.80;99.90;;;;;;5102887;28;20036;-72
2023/04/23 02:10:32;;;;;;;51.70;27.52;;;10.80;99.90;;;;;;5102495;28;20115;-72
2023/04/23 02:12:58;;;;;;;45.40;24.90;;;10.80;99.90;;;;;;5103060;28;20111;-72
2023/04/23 02:15:24;;;;;;;47.03;25.83;;;10.90;99.90;;;;;;5102832;28;20042;-72
2023/04/23 02:17:52;;;;;;;43.70;24.58;;;10.90;99.90;;;;;;5102811;28;20495;-72
2023/04/23 02:20:18;;;;;;;45.55;24.98;;;10.90;99.90;;;;;;5103085;28;20082;-72
2023/04/23 02:22:45;;;;;;;42.75;24.48;;;10.90;99.90;;;;;;5102593;28;20079;-72
2023/04/23 02:25:14;;;;;;;49.90;27.15;;;10.90;99.90;;;;;;5102960;28;20040;-72
2023/04/23 02:27:40;;;;;;;41.45;23.13;;;10.90;99.90;;;;;;5101930;28;20382;-72
2023/04/23 02:30:08;;;;;;;41.50;24.02;;;10.80;99.90;;;;;;5098698;28;20038;-72
2023/04/23 02:32:34;;;;;;;43.90;25.08;;;10.80;99.90;;;;;;5099834;28;20039;-72
2023/04/23 02:35:00;;;;;;;46.22;26.00;;;10.70;99.90;;;;;;5099437;28;20093;-73
2023/04/23 02:37:27;;;;;;;49.03;25.95;;;10.70;99.90;;;;;;5099458;28;20044;-72
2023/04/23 02:39:53;;;;;;;48.40;25.80;;;10.70;99.90;;;;;;5099276;28;20036;-72
2023/04/23 02:42:18;;;;;;;46.67;26.30;;;10.60;99.90;;;;;;5099227;28;20036;-72
2023/04/23 02:44:44;;;;;;;51.55;26.52;;;10.60;99.90;;;;;;5099591;28;20065;-72
2023/04/23 02:47:10;;;;;;;67.28;32.45;;;10.60;99.90;;;;;;5099503;28;20051;-72
2023/04/23 02:49:35;;;;;;;51.47;27.27;;;10.50;99.90;;;;;;5099427;28;20093;-72
2023/04/23 02:52:02;;;;;;;60.72;29.63;;;10.40;99.90;;;;;;5099405;28;20032;-72
2023/04/23 02:54:27;;;;;;;53.65;29.45;;;10.50;99.90;;;;;;5099124;28;20036;-72
2023/04/23 02:56:53;;;;;;;53.42;28.13;;;10.40;99.90;;;;;;5099294;28;20039;-72
2023/04/23 02:59:19;;;;;;;53.22;27.75;;;10.40;99.90;;;;;;5099205;28;20318;-72
2023/04/23 03:01:44;;;;;;;56.53;29.52;;;10.40;99.90;;;;;;5099089;28;20040;-72
2023/04/23 03:04:11;;;;;;;57.38;29.83;;;10.30;99.90;;;;;;5099138;28;20172;-72
2023/04/23 03:06:36;;;;;;;54.22;28.83;;;10.30;99.90;;;;;;5099146;28;20040;-72
2023/04/23 03:09:03;;;;;;;63.75;32.72;;;10.30;99.90;;;;;;5098635;28;20047;-72
2023/04/23 03:11:29;;;;;;;58.90;29.60;;;10.30;99.90;;;;;;5099028;28;20051;-72
2023/04/23 03:13:55;;;;;;;83.15;36.92;;;10.40;99.90;;;;;;5097684;28;20122;-72
2023/04/23 03:16:20;;;;;;;70.03;34.67;;;10.40;99.90;;;;;;5097804;28;20048;-73
2023/04/23 03:18:46;;;;;;;63.92;32.58;;;10.20;99.90;;;;;;5098815;28;20044;-72
2023/04/23 03:21:12;;;;;;;70.18;34.70;;;10.30;99.90;;;;;;5098486;28;20326;-72
2023/04/23 03:23:37;;;;;;;76.35;36.25;;;10.30;99.90;;;;;;5098871;28;20032;-72
2023/04/23 03:26:03;;;;;;;78.63;36.88;;;10.40;99.90;;;;;;5098805;28;20306;-72
2023/04/23 03:28:30;;;;;;;92.03;40.13;;;10.30;99.90;;;;;;5098732;28;20040;-72
2023/04/23 03:30:55;;;;;;;80.57;38.35;;;10.10;99.90;;;;;;5098334;28;20487;-72
2023/04/23 03:33:21;;;;;;;80.78;38.75;;;10.10;99.90;;;;;;5098598;28;20079;-72
2023/04/23 03:35:47;;;;;;;79.80;38.28;;;10.30;99.90;;;;;;5098281;28;20036;-72
2023/04/23 03:38:13;;;;;;;88.50;40.15;;;10.00;99.90;;;;;;5098488;28;20047;-72
2023/04/23 03:40:38;;;;;;;89.53;40.28;;;10.00;99.90;;;;;;5097635;28;20048;-72
2023/04/23 03:43:04;;;;;;;83.80;38.65;;;10.10;99.90;;;;;;5098365;28;20043;-72
2023/04/23 03:45:30;;;;;;;109.10;44.70;;;9.90;99.90;;;;;;5098340;28;20044;-72
2023/04/23 03:47:55;;;;;;;89.90;40.58;;;10.00;99.90;;;;;;5098331;28;20115;-72
2023/04/23 03:50:21;;;;;;;89.15;39.88;;;9.80;99.90;;;;;;5098290;28;20035;-72
2023/04/23 03:52:47;;;;;;;85.75;39.47;;;9.80;99.90;;;;;;5098235;28;20433;-72
2023/04/23 03:55:12;;;;;;;88.63;40.60;;;9.90;99.90;;;;;;5097226;28;20040;-72
2023/04/23 03:57:38;;;;;;;98.05;42.08;;;10.10;99.90;;;;;;5098121;28;20040;-72
2023/04/23 04:00:10;;;;;;;103.72;44.05;;;10.10;99.90;;;;;;5098019;28;20036;-72
2023/04/23 04:02:37;;;;;;;94.35;40.20;;;10.20;99.90;;;;;;5098006;28;20127;-73
2023/04/23 04:05:03;;;;;;;167.13;42.15;;;10.20;99.90;;;;;;5097956;28;20036;-72
2023/04/23 04:07:29;;;;;;;79.88;39.72;;;10.10;99.90;;;;;;5097949;28;20036;-72
2023/04/23 04:09:55;;;;;;;96.03;37.40;;;10.10;99.90;;;;;;5097456;28;20432;-72
2023/04/23 04:12:20;;;;;;;91.45;40.20;;;10.10;99.90;;;;;;5097809;28;20064;-72
2023/04/23 04:14:46;;;;;;;118.72;41.08;;;10.00;99.90;;;;;;5097734;28;20047;-72
2023/04/23 04:17:14;;;;;;;87.47;37.60;;;9.80;99.90;;;;;;5098147;28;20044;-73
2023/04/23 04:19:41;;;;;;;90.07;38.60;;;9.80;99.90;;;;;;5098003;28;20051;-72
2023/04/23 04:22:06;;;;;;;122.43;39.58;;;9.90;99.90;;;;;;5096152;28;20056;-73
2023/04/23 04:24:32;;;;;;;84.40;38.13;;;10.00;99.90;;;;;;5097605;28;20341;-73
2023/04/23 04:27:01;;;;;;;99.10;37.83;;;10.10;99.90;;;;;;5097574;28;20028;-72
2023/04/23 04:29:27;;;;;;;113.35;42.42;;;10.10;99.90;;;;;;5097495;28;20036;-72
2023/04/23 04:31:56;;;;;;;85.63;38.38;;;10.10;99.90;;;;;;5097463;28;20472;-72
2023/04/23 04:34:22;;;;;;;86.72;41.15;;;10.20;99.90;;;;;;5097517;28;20036;-72
2023/04/23 04:36:50;;;;;;;87.80;40.80;;;10.30;99.90;;;;;;5097435;28;20044;-72
2023/04/23 04:39:16;;;;;;;95.75;42.38;;;10.40;99.90;;;;;;5097010;28;20402;-72
2023/04/23 04:41:42;;;;;;;101.68;43.33;;;10.50;99.90;;;;;;5096886;28;20421;-72
2023/04/23 04:44:08;;;;;;;101.88;44.83;;;10.60;99.90;;;;;;5096050;28;20069;-72
2023/04/23 04:46:39;;;;;;;89.97;41.63;;;10.50;99.90;;;;;;5097077;28;20394;-73
2023/04/23 04:49:14;;;;;;;94.78;42.72;;;10.60;99.90;;;;;;5097117;28;20040;-72
2023/04/23 04:51:40;;;;;;;106.18;44.53;;;10.70;99.90;;;;;;5095346;28;20115;-72
2023/04/23 04:54:07;;;;;;;89.70;41.30;;;10.60;99.90;;;;;;5096819;28;20040;-72
2023/04/23 04:56:33;;;;;;;96.00;42.92;;;10.60;99.90;;;;;;5097078;28;20079;-73
2023/04/23 04:58:59;;;;;;;103.03;44.83;;;10.70;99.90;;;;;;5096759;28;20071;-72
2023/04/23 05:01:26;;;;;;;95.45;43.13;;;10.70;99.90;;;;;;5096953;28;20036;-72
2023/04/23 05:03:52;;;;;;;92.20;42.90;;;10.60;99.90;;;;;;5096706;28;20435;-72
2023/04/23 05:06:18;;;;;;;94.50;42.63;;;10.70;99.90;;;;;;5096887;28;20093;-72
2023/04/23 05:08:46;;;;;;;93.10;43.05;;;10.70;99.90;;;;;;5096489;28;20032;-73
2023/04/23 05:11:19;;;;;;;89.55;41.63;;;10.50;99.90;;;;;;5095819;28;20412;-72
2023/04/23 05:13:46;;;;;;;127.82;48.13;;;10.30;99.90;;;;;;5096536;28;20451;-72
2023/04/23 05:16:12;;;;;;;120.25;47.33;;;10.30;99.90;;;;;;5096491;28;20047;-72
2023/04/23 05:18:39;;;;;;;100.85;45.33;;;10.30;99.90;;;;;;5096775;28;20036;-73
2023/04/23 05:21:05;;;;;;;97.32;44.50;;;10.30;99.90;;;;;;5096472;28;20115;-72
2023/04/23 05:23:32;;;;;;;98.88;45.97;;;10.40;99.90;;;;;;5096718;28;20166;-72
2023/04/23 05:25:57;;;;;;;125.00;48.92;;;10.50;99.90;;;;;;5096431;28;20040;-72
2023/04/23 05:28:24;;;;;;;121.63;48.88;;;10.40;99.90;;;;;;5096655;28;20047;-72
2023/04/23 05:30:50;;;;;;;102.78;46.38;;;10.40;99.90;;;;;;5096365;28;20440;-72
2023/04/23 05:33:15;;;;;;;111.47;48.42;;;10.50;99.90;;;;;;5096318;28;20445;-72
2023/04/23 05:35:41;;;;;;;100.15;45.92;;;10.50;99.90;;;;;;5096566;28;20043;-73
2023/04/23 05:38:07;;;;;;;143.75;50.88;;;10.60;99.90;;;;;;5096580;28;20072;-72
2023/04/23 05:40:33;;;;;;;96.15;46.65;;;10.60;99.90;;;;;;5096161;28;20039;-73
2023/04/23 05:42:59;;;;;;;101.07;46.92;;;10.40;99.90;;;;;;5096443;28;20316;-72
2023/04/23 05:45:25;;;;;;;155.20;56.05;;;10.50;99.90;;;;;;5096228;28;20037;-72
2023/04/23 05:47:51;;;;;;;122.40;50.15;;;10.50;99.90;;;;;;5096465;28;20115;-72
2023/04/23 05:50:17;;;;;;;110.07;49.50;;;10.60;99.90;;;;;;5096461;28;20062;-72
2023/04/23 05:52:43;;;;;;;107.50;49.20;;;10.70;99.90;;;;;;5096133;28;20429;-72
2023/04/23 05:55:09;;;;;;;137.55;54.67;;;10.70;99.90;;;;;;5096423;28;20119;-72
2023/04/23 05:57:37;;;;;;;142.30;55.58;;;10.90;99.90;;;;;;5096411;28;20437;-72
2023/04/23 06:00:04;;;;;;;132.10;53.13;;;10.90;99.90;;;;;;5096427;28;20153;-72
2023/04/23 06:02:32;;;;;;;119.25;52.40;;;10.90;99.90;;;;;;5096273;28;20039;-72
2023/04/23 06:04:58;;;;;;;137.50;56.42;;;11.00;99.90;;;;;;5099577;28;20116;-72
2023/04/23 06:07:24;;;;;;;111.30;50.45;;;11.20;99.90;;;;;;5100158;28;20425;-72
2023/04/23 06:09:49;;;;;;;142.00;56.92;;;11.30;99.90;;;;;;5099720;28;20035;-72
2023/04/23 06:12:15;;;;;;;128.68;54.03;;;11.30;99.90;;;;;;5100025;28;20036;-72
2023/04/23 06:14:41;;;;;;;123.88;54.53;;;11.40;99.90;;;;;;5099982;28;20421;-72
2023/04/23 06:17:06;;;;;;;120.78;52.42;;;11.40;99.90;;;;;;5099681;28;20043;-72
2023/04/23 06:19:32;;;;;;;123.18;54.83;;;11.50;99.90;;;;;;5099630;28;20044;-72
2023/04/23 06:21:58;;;;;;;138.50;57.47;;;11.40;99.90;;;;;;5099491;28;20083;-73
2023/04/23 06:24:24;;;;;;;144.95;59.00;;;11.40;99.90;;;;;;5099856;28;20043;-72
2023/04/23 06:26:49;;;;;;;119.80;54.75;;;11.60;99.90;;;;;;5099809;28;20044;-72
2023/04/23 06:29:15;;;;;;;121.57;53.17;;;11.40;99.90;;;;;;5099775;28;20115;-72
2023/04/23 06:31:41;;;;;;;119.18;53.95;;;11.50;99.90;;;;;;5099682;28;20040;-73
2023/04/23 06:34:06;;;;;;;107.07;50.67;;;11.50;99.90;;;;;;5099683;28;20315;-73
2023/04/23 06:36:32;;;;;;;114.85;52.08;;;11.60;99.90;;;;;;5098582;28;20051;-74
2023/04/23 06:38:58;;;;;;;121.75;52.17;;;11.30;99.90;;;;;;5099124;28;20036;-68
2023/04/23 06:41:24;;;;;;;97.00;46.38;;;11.40;99.90;;;;;;5098195;28;20048;-69
2023/04/23 06:43:50;;;;;;;114.32;51.03;;;11.30;99.90;;;;;;5099417;28;20036;-68
2023/04/23 06:46:15;;;;;;;109.43;49.78;;;11.50;99.90;;;;;;5099487;28;20054;-68
2023/04/23 06:48:41;;;;;;;112.05;50.03;;;11.70;99.90;;;;;;5097426;28;20043;-69
2023/04/23 06:51:07;;;;;;;100.15;47.22;;;11.90;99.90;;;;;;5098462;28;20114;-69
2023/04/23 06:53:33;;;;;;;108.00;49.90;;;12.00;99.90;;;;;;5098415;28;20048;-68
2023/04/23 06:55:58;;;;;;;100.15;49.38;;;11.80;99.90;;;;;;5098603;28;20028;-68
2023/04/23 06:58:29;;;;;;;103.45;48.45;;;11.70;99.90;;;;;;5098310;28;20036;-68
2023/04/23 07:00:58;;;;;;;98.28;47.35;;;11.80;99.90;;;;;;5099190;28;20046;-69
2023/04/23 07:03:26;;;;;;;98.68;46.92;;;11.70;99.90;;;;;;5098880;28;20429;-68
2023/04/23 07:05:52;;;;;;;97.72;46.15;;;11.80;99.90;;;;;;5099121;28;20039;-68
2023/04/23 07:08:19;;;;;;;93.53;44.30;;;11.90;99.90;;;;;;5099064;28;20044;-68
2023/04/23 07:10:45;;;;;;;99.63;45.20;;;11.90;99.90;;;;;;5098613;28;20102;-67
2023/04/23 07:13:11;;;;;;;87.32;43.42;;;11.80;99.90;;;;;;5098972;28;20036;-69
2023/04/23 07:15:37;;;;;;;91.30;43.75;;;11.90;99.90;;;;;;5096183;28;20032;-69
2023/04/23 07:18:03;;;;;;;92.47;45.58;;;12.00;99.90;;;;;;5098842;28;20065;-69
2023/04/23 07:20:29;;;;;;;86.10;41.45;;;12.10;99.90;;;;;;5098834;28;20047;-70
2023/04/23 07:22:56;;;;;;;75.38;38.47;;;12.20;99.90;;;;;;5098265;28;20048;-73
2023/04/23 07:25:23;;;;;;;71.88;39.08;;;12.30;99.90;;;;;;5097508;28;20051;-72
2023/04/23 07:27:49;;;;;;;106.72;40.55;;;12.50;99.90;;;;;;5098734;28;20071;-76
2023/04/23 07:30:15;;;;;;;75.28;38.78;;;12.50;99.90;;;;;;5064122;28;20035;-68
2023/04/23 07:32:42;;;;;;;74.68;39.63;;;12.50;99.90;;;;;;5098343;28;20543;-68
2023/04/23 07:35:09;;;;;;;75.43;38.08;;;12.70;99.90;;;;;;5097502;28;20337;-69
2023/04/23 07:37:36;;;;;;;69.30;36.88;;;12.60;99.90;;;;;;5098815;28;20079;-68
2023/04/23 07:40:02;;;;;;;70.82;38.83;;;12.70;99.90;;;;;;5097788;28;20040;-69
2023/04/23 07:42:28;;;;;;;69.35;39.08;;;12.70;99.90;;;;;;5098362;28;20046;-70
2023/04/23 07:44:55;;;;;;;70.40;37.42;;;12.90;99.90;;;;;;5097291;28;20126;-68
2023/04/23 07:47:20;;;;;;;75.15;36.70;;;13.10;99.90;;;;;;5098008;28;20469;-69
2023/04/23 07:49:46;;;;;;;66.30;36.60;;;13.10;99.90;;;;;;5098290;28;20040;-69
2023/04/23 07:52:12;;;;;;;67.05;36.17;;;12.90;99.90;;;;;;5098245;28;20067;-69
2023/04/23 07:54:37;;;;;;;65.22;34.03;;;12.90;99.90;;;;;;5098133;28;20037;-69
2023/04/23 07:57:03;;;;;;;62.10;35.38;;;13.20;99.90;;;;;;5098155;28;20424;-68
2023/04/23 07:59:29;;;;;;;61.08;35.22;;;12.90;99.90;;;;;;5097094;28;20044;-68
2023/04/23 08:01:54;;;;;;;63.20;34.03;;;13.00;99.90;;;;;;5097915;28;20044;-68
2023/04/23 08:04:20;;;;;;;62.63;34.17;;;13.10;99.90;;;;;;5097971;28;20040;-69
2023/04/23 08:06:46;;;;;;;57.97;33.83;;;13.00;99.90;;;;;;5097670;28;20039;-68
2023/04/23 08:09:11;;;;;;;58.63;33.40;;;13.00;99.90;;;;;;5097466;28;20040;-69
2023/04/23 08:11:37;;;;;;;58.90;33.25;;;13.30;99.90;;;;;;5096420;28;20036;-69
2023/04/23 08:14:02;;;;;;;64.38;34.72;;;13.20;99.90;;;;;;5096954;28;20032;-69
2023/04/23 08:16:28;;;;;;;58.80;34.25;;;13.40;99.90;;;;;;5095882;28;20040;-68
2023/04/23 08:18:54;;;;;;;63.70;35.42;;;13.60;99.90;;;;;;5098111;28;20097;-69
2023/04/23 08:21:21;;;;;;;57.95;32.10;;;13.70;99.90;;;;;;5097404;28;20044;-68
2023/04/23 08:23:46;;;;;;;54.38;31.33;;;13.70;99.90;;;;;;5097760;28;20086;-69
2023/04/23 08:26:12;;;;;;;53.38;30.63;;;13.90;99.90;;;;;;5097100;28;20044;-68
2023/04/23 08:28:38;;;;;;;53.00;30.95;;;14.10;99.90;;;;;;5096844;28;20036;-68
2023/04/23 08:31:04;;;;;;;54.58;32.25;;;14.30;99.90;;;;;;5097531;28;20044;-69
2023/04/23 08:33:29;;;;;;;49.13;30.58;;;14.60;99.90;;;;;;5097471;28;20036;-69
2023/04/23 08:35:55;;;;;;;49.42;29.95;;;14.80;99.90;;;;;;5097437;28;20111;-69
2023/04/23 08:38:21;;;;;;;47.25;27.38;;;14.80;99.90;;;;;;5097430;28;20040;-69
2023/04/23 08:40:49;;;;;;;46.10;29.38;;;14.80;99.90;;;;;;5096667;28;20044;-69
2023/04/23 08:43:45;;;;;;;48.83;29.73;;;15.00;99.90;;;;;;5096134;28;20036;-68
2023/04/23 08:46:15;;;;;;;48.05;29.40;;;14.90;99.90;;;;;;5096462;28;20098;-68
2023/04/23 08:48:44;;;;;;;44.45;27.40;;;15.10;99.90;;;;;;5097222;28;20048;-69
2023/04/23 08:51:16;;;;;;;42.67;25.13;;;15.10;99.90;;;;;;5096301;28;20039;-69
2023/04/23 08:53:44;;;;;;;42.40;25.55;;;15.10;99.90;;;;;;5096953;28;20044;-69
2023/04/23 08:56:12;;;;;;;47.60;25.35;;;15.20;99.90;;;;;;5097191;28;20052;-68
2023/04/23 08:58:39;;;;;;;47.05;27.10;;;15.40;99.90;;;;;;5097226;28;20036;-69
2023/04/23 09:01:06;;;;;;;50.03;26.83;;;15.40;99.90;;;;;;5096733;28;20050;-73
2023/04/23 09:03:32;;;;;;;44.17;24.13;;;15.40;99.90;;;;;;5097068;28;20073;-73
2023/04/23 09:05:58;;;;;;;44.75;25.42;;;15.40;99.90;;;;;;5096988;28;20063;-72
2023/04/23 09:08:24;;;;;;;45.88;25.42;;;15.60;99.90;;;;;;5097010;28;20421;-72
2023/04/23 09:10:54;;;;;;;46.15;27.27;;;15.30;99.90;;;;;;5096544;28;20042;-73
2023/04/23 09:13:21;;;;;;;41.35;24.70;;;15.40;99.90;;;;;;5096166;28;20321;-76
2023/04/23 09:15:47;;;;;;;40.92;24.77;;;15.20;99.90;;;;;;5097500;28;20368;-77
2023/04/23 09:18:13;;;;;;;40.35;24.27;;;15.30;99.90;;;;;;5097249;28;20090;-76
2023/04/23 09:20:38;;;;;;;37.15;22.17;;;15.40;99.90;;;;;;5097076;28;20396;-77
2023/04/23 09:23:07;;;;;;;32.97;19.25;;;15.60;99.90;;;;;;5096374;28;20056;-70
2023/04/23 09:25:33;;;;;;;32.60;19.67;;;15.50;99.90;;;;;;5096515;28;20194;-70
2023/04/23 09:28:02;;;;;;;30.58;17.58;;;15.90;99.90;;;;;;5096776;28;20123;-70
2023/04/23 09:30:28;;;;;;;27.10;16.40;;;16.20;99.90;;;;;;5096768;28;20084;-70
2023/04/23 09:32:54;;;;;;;25.83;15.38;;;16.10;99.90;;;;;;5096801;28;20039;-72
2023/04/23 09:35:19;;;;;;;27.92;16.00;;;16.10;99.90;;;;;;5095339;28;20342;-73
2023/04/23 09:37:48;;;;;;;29.90;17.83;;;15.90;99.90;;;;;;5096521;28;20040;-73
2023/04/23 09:40:25;;;;;;;72.40;21.20;;;15.80;99.90;;;;;;5099856;28;20090;-73
2023/04/23 09:42:53;;;;;;;41.50;17.02;;;15.80;99.90;;;;;;5098794;28;20326;-73
2023/04/23 09:45:19;;;;;;;29.15;14.60;;;15.90;99.90;;;;;;5082515;28;20115;-73
2023/04/23 09:47:52;;;;;;;21.67;12.38;;;15.70;99.90;;;;;;5100599;28;20068;-74
2023/04/23 09:50:30;;;;;;;26.83;13.50;;;15.70;99.90;;;;;;5099119;28;20032;-73
2023/04/23 09:52:55;;;;;;;16.60;10.07;;;15.80;99.90;;;;;;5100356;28;20047;-74
2023/04/23 09:55:39;;;;;;;20.17;10.98;;;15.50;99.90;;;;;;5099006;28;20044;-74
2023/04/23 09:58:14;;;;;;;21.50;11.40;;;15.80;99.90;;;;;;5100557;28;20043;-73
2023/04/23 10:00:41;;;;;;;16.35;9.73;;;16.10;99.90;;;;;;5099281;28;20539;-73
2023/04/23 10:03:08;;;;;;;17.48;10.02;;;16.20;99.90;;;;;;5099009;28;20047;-73
2023/04/23 10:05:41;;;;;;;21.38;10.40;;;16.00;99.90;;;;;;5100197;28;20040;-73
2023/04/23 10:08:07;;;;;;;20.27;10.88;;;16.00;99.90;;;;;;5100344;28;20119;-73
2023/04/23 10:10:34;;;;;;;16.63;9.05;;;16.30;99.90;;;;;;5099894;28;20063;-75
2023/04/23 10:13:00;;;;;;;17.67;8.38;;;16.40;99.90;;;;;;5065474;28;20077;-75
2023/04/23 10:15:26;;;;;;;17.75;9.05;;;16.60;99.90;;;;;;5082222;28;20416;-76
2023/04/23 10:17:58;;;;;;;18.38;8.65;;;17.00;99.90;;;;;;5098785;28;20047;-76
2023/04/23 10:20:24;;;;;;;15.23;8.02;;;17.10;99.90;;;;;;5098851;28;20036;-76
2023/04/23 10:22:52;;;;;;;14.55;8.10;;;17.20;99.90;;;;;;5099442;28;20066;-75
2023/04/23 10:25:20;;;;;;;15.00;7.60;;;17.40;99.90;;;;;;5081503;28;20040;-76
2023/04/23 10:27:48;;;;;;;16.58;8.10;;;17.60;99.90;;;;;;5098612;28;20078;-76
2023/04/23 10:30:14;;;;;;;17.30;7.90;;;17.40;99.90;;;;;;5099576;28;20123;-75
2023/04/23 10:32:41;;;;;;;18.08;7.43;;;17.90;99.90;;;;;;5081709;28;20044;-76
2023/04/23 10:35:08;;;;;;;15.55;8.23;;;18.10;99.90;;;;;;5098521;28;20047;-76
2023/04/23 10:37:35;;;;;;;13.57;7.10;;;18.30;99.90;;;;;;5098540;28;20085;-76
2023/04/23 10:40:10;;;;;;;10.70;6.85;;;18.70;99.90;;;;;;5097936;28;20055;-75
2023/04/23 10:42:37;;;;;;;14.73;6.88;;;18.90;99.90;;;;;;5099641;28;20055;-76
2023/04/23 10:45:11;;;;;;;15.00;6.50;;;19.20;99.90;;;;;;5098305;28;20043;-74
2023/04/23 10:47:37;;;;;;;14.05;6.05;;;19.30;99.90;;;;;;5098338;28;20072;-74
2023/04/23 10:50:33;;;;;;;17.30;6.68;;;18.90;99.90;;;;;;5080419;28;20125;-74
2023/04/23 10:53:00;;;;;;;13.63;5.53;;;18.90;99.90;;;;;;5097885;28;20109;-73
2023/04/23 10:55:29;;;;;;;11.80;4.60;;;18.80;99.90;;;;;;5097800;28;20108;-74
2023/04/23 10:58:01;;;;;;;11.18;4.85;;;18.40;99.90;;;;;;5098841;28;20050;-73
2023/04/23 11:00:40;;;;;;;10.90;5.35;;;18.40;99.90;;;;;;5097830;28;20044;-76
2023/04/23 11:03:29;;;;;;;12.63;5.07;;;18.40;99.90;;;;;;5099326;28;20047;-76
2023/04/23 11:05:54;;;;;;;12.63;4.95;;;17.80;99.90;;;;;;5097942;28;20044;-76
2023/04/23 11:08:20;;;;;;;14.48;5.60;;;18.20;99.90;;;;;;5097675;28;20170;-77
2023/04/23 11:10:57;;;;;;;11.93;5.82;;;18.30;99.90;;;;;;5097968;28;20032;-69
2023/04/23 11:13:25;;;;;;;14.05;4.90;;;17.90;99.90;;;;;;5097675;28;20036;-69
2023/04/23 11:16:15;;;;;;;11.60;4.40;;;17.90;99.90;;;;;;5098654;28;20425;-69
2023/04/23 11:19:02;;;;;;;10.57;4.70;;;17.80;99.90;;;;;;5098634;28;20123;-68
2023/04/23 11:22:06;;;;;;;12.40;5.32;;;17.90;99.90;;;;;;5098907;28;20397;-67
2023/04/23 11:24:41;;;;;;;11.43;4.60;;;18.30;99.90;;;;;;5097514;28;20059;-67
2023/04/23 11:27:09;;;;;;;12.65;5.13;;;18.70;99.90;;;;;;5098867;28;20040;-67
2023/04/23 11:29:36;;;;;;;9.60;4.72;;;18.60;99.90;;;;;;5098459;28;20032;-67
2023/04/23 11:32:04;;;;;;;10.75;4.43;;;18.50;99.90;;;;;;5098701;28;20119;-67
2023/04/23 11:34:31;;;;;;;14.13;4.45;;;19.10;99.90;;;;;;5098650;28;20341;-67
2023/04/23 11:36:58;;;;;;;11.45;4.18;;;19.30;99.90;;;;;;5098551;28;20051;-67
2023/04/23 11:39:24;;;;;;;12.48;3.72;;;19.50;99.90;;;;;;5098132;28;20118;-68
2023/04/23 11:41:51;;;;;;;10.80;3.10;;;19.60;99.90;;;;;;5097770;28;20135;-67
2023/04/23 11:44:18;;;;;;;5.85;2.92;;;19.60;99.90;;;;;;5088933;28;20047;-73
2023/04/23 11:46:48;;;;;;;9.77;3.72;;;19.40;99.90;;;;;;5097793;28;20040;-69
2023/04/23 11:49:15;;;;;;;11.00;3.58;;;19.10;99.90;;;;;;5097150;28;20036;-73
2023/04/23 11:51:43;;;;;;;10.73;3.25;;;19.00;99.90;;;;;;5091869;28;20137;-69
2023/04/23 11:54:10;;;;;;;7.43;2.50;;;18.80;99.90;;;;;;5097029;28;20044;-73
2023/04/23 11:56:37;;;;;;;9.48;2.28;;;19.00;99.90;;;;;;5098211;28;20119;-73
2023/04/23 11:59:03;;;;;;;7.43;2.25;;;19.20;99.90;;;;;;5098178;28;20032;-74
2023/04/23 12:01:58;;;;;;;7.38;1.70;;;19.50;99.90;;;;;;5097638;28;20039;-73
2023/04/23 12:04:26;;;;;;;6.57;1.77;;;19.10;99.90;;;;;;5080813;28;20052;-68
2023/04/23 12:06:54;;;;;;;6.13;1.67;;;19.00;99.90;;;;;;5098039;28;20040;-69
2023/04/23 12:09:25;;;;;;;6.05;1.70;;;18.90;99.90;;;;;;5097305;28;20048;-69
2023/04/23 12:11:51;;;;;;;5.70;1.70;;;19.20;99.90;;;;;;5098002;28;20329;-69
2023/04/23 12:14:22;;;;;;;7.05;2.05;;;19.70;99.90;;;;;;5097564;28;20040;-69
2023/04/23 12:16:51;;;;;;;6.32;1.95;;;20.00;99.90;;;;;;5079623;28;20093;-69
2023/04/23 12:19:19;;;;;;;6.78;2.00;;;20.20;99.90;;;;;;5097776;28;20039;-68
2023/04/23 12:21:55;;;;;;;6.70;1.65;;;20.20;99.90;;;;;;5097425;28;20329;-68
2023/04/23 12:24:26;;;;;;;5.93;1.42;;;19.90;99.90;;;;;;5097725;28;20052;-67
2023/04/23 12:26:53;;;;;;;10.35;1.90;;;20.00;99.90;;;;;;5097365;28;20413;-68
2023/04/23 12:29:21;;;;;;;7.50;1.90;;;20.30;99.90;;;;;;5097614;28;20050;-68